createdAt,value
2023-03-26T00:00:21.513Z,17.90
2023-03-26T00:00:54.268Z,16.85
2023-03-26T00:01:27.481Z,11.82
2023-03-26T00:01:59.100Z,16.75
2023-03-26T00:02:30.744Z,15.60
2023-03-26T00:03:03.110Z,15.25
2023-03-26T00:03:35.327Z,16.33
2023-03-26T00:04:07.484Z,15.90
2023-03-26T00:04:38.976Z,13.27
2023-03-26T00:05:10.546Z,12.85
2023-03-26T00:05:42.208Z,19.73
2023-03-26T00:06:16.943Z,16.95
2023-03-26T00:06:50.978Z,21.13
2023-03-26T00:07:22.638Z,11.18
2023-03-26T00:07:54.025Z,13.57
2023-03-26T00:08:25.444Z,11.68
2023-03-26T00:08:58.349Z,12.20
2023-03-26T00:09:29.916Z,17.45
2023-03-26T00:10:01.398Z,12.43
2023-03-26T00:10:33.218Z,11.65
2023-03-26T00:11:06.634Z,14.17
2023-03-26T00:11:38.117Z,18.50
2023-03-26T00:12:09.728Z,17.67
2023-03-26T00:12:41.434Z,18.73
2023-03-26T00:13:12.870Z,19.90
2023-03-26T00:13:44.990Z,18.05
2023-03-26T00:14:17.551Z,16.50
2023-03-26T00:14:49.382Z,12.70
2023-03-26T00:15:20.746Z,14.18
2023-03-26T00:15:53.088Z,17.15
2023-03-26T00:16:28.147Z,16.30
2023-03-26T00:16:59.648Z,13.07
2023-03-26T00:17:31.075Z,18.65
2023-03-26T00:18:03.585Z,15.80
2023-03-26T00:18:35.058Z,17.77
2023-03-26T00:19:06.582Z,16.35
2023-03-26T00:19:38.114Z,19.02
2023-03-26T00:20:09.739Z,14.43
2023-03-26T00:20:41.521Z,13.70
2023-03-26T00:21:17.869Z,11.27
2023-03-26T00:21:49.499Z,18.30
2023-03-26T00:22:21.028Z,18.20
2023-03-26T00:22:53.457Z,18.42
2023-03-26T00:23:25.580Z,11.75
2023-03-26T00:24:06.862Z,14.98
2023-03-26T00:24:39.490Z,14.68
2023-03-26T00:25:11.173Z,16.35
2023-03-26T00:25:43.431Z,12.23
2023-03-26T00:26:17.460Z,16.02
2023-03-26T00:26:53.301Z,14.77
2023-03-26T00:27:25.311Z,15.13
2023-03-26T00:27:57.307Z,20.27
2023-03-26T00:28:29.712Z,13.93
2023-03-26T00:29:03.278Z,13.13
2023-03-26T00:29:35.942Z,17.13
2023-03-26T00:30:07.912Z,17.35
2023-03-26T00:31:31.370Z,17.55
2023-03-26T00:32:02.874Z,14.98
2023-03-26T00:32:34.381Z,12.27
2023-03-26T00:33:07.616Z,13.57
2023-03-26T00:33:40.624Z,20.88
2023-03-26T00:34:13.573Z,20.98
2023-03-26T00:34:46.052Z,12.85
2023-03-26T00:35:17.625Z,13.63
2023-03-26T00:35:53.923Z,13.07
2023-03-26T00:36:26.720Z,19.02
2023-03-26T00:37:02.536Z,18.77
2023-03-26T00:37:33.987Z,13.90
2023-03-26T00:38:05.384Z,23.02
2023-03-26T00:38:38.994Z,20.07
2023-03-26T00:39:10.646Z,13.52
2023-03-26T00:39:42.773Z,18.45
2023-03-26T00:40:14.302Z,15.52
2023-03-26T00:40:48.224Z,16.08
2023-03-26T00:41:25.526Z,17.60
2023-03-26T00:41:56.994Z,14.82
2023-03-26T00:42:29.443Z,19.10
2023-03-26T00:43:02.392Z,15.80
2023-03-26T00:43:36.136Z,22.05
2023-03-26T00:44:07.555Z,14.80
2023-03-26T00:44:38.948Z,12.15
2023-03-26T00:45:11.184Z,15.35
2023-03-26T00:45:42.717Z,12.63
2023-03-26T00:46:14.480Z,18.13
2023-03-26T00:46:46.227Z,12.43
2023-03-26T00:47:17.775Z,16.13
2023-03-26T00:47:49.390Z,15.52
2023-03-26T00:48:31.326Z,13.52
2023-03-26T00:49:11.092Z,13.35
2023-03-26T00:49:42.653Z,12.10
2023-03-26T00:50:16.259Z,14.15
2023-03-26T00:50:48.740Z,17.48
2023-03-26T00:51:21.311Z,15.77
2023-03-26T00:51:53.050Z,15.10
2023-03-26T00:52:24.804Z,15.02
2023-03-26T00:52:56.293Z,14.23
2023-03-26T00:53:27.689Z,14.55
2023-03-26T00:53:59.219Z,13.63
2023-03-26T00:54:30.662Z,17.65
2023-03-26T00:55:02.492Z,11.57
2023-03-26T00:55:34.465Z,14.20
2023-03-26T00:56:07.152Z,15.38
2023-03-26T00:56:38.795Z,12.27
2023-03-26T00:57:10.635Z,12.77
2023-03-26T00:57:42.109Z,14.80
2023-03-26T00:58:14.642Z,15.10
2023-03-26T00:58:47.544Z,12.18
2023-03-26T00:59:19.032Z,11.32
2023-03-26T00:59:50.804Z,14.00
2023-03-26T01:00:31.758Z,10.17
2023-03-26T01:01:07.007Z,9.40
2023-03-26T01:01:38.455Z,13.07
2023-03-26T01:02:17.020Z,13.40
2023-03-26T01:02:48.707Z,15.13
2023-03-26T01:03:26.975Z,11.13
2023-03-26T01:04:24.327Z,11.82
2023-03-26T01:05:02.689Z,14.25
2023-03-26T01:05:34.223Z,10.07
2023-03-26T01:06:11.259Z,14.65
2023-03-26T01:06:45.325Z,14.43
2023-03-26T01:07:21.731Z,16.63
2023-03-26T01:07:53.128Z,12.85
2023-03-26T01:08:33.292Z,21.55
2023-03-26T01:09:16.837Z,14.00
2023-03-26T01:09:51.251Z,14.88
2023-03-26T01:10:22.676Z,11.95
2023-03-26T01:11:02.990Z,13.38
2023-03-26T01:11:35.902Z,12.38
2023-03-26T01:12:13.370Z,16.23
2023-03-26T01:12:44.798Z,11.60
2023-03-26T01:13:22.141Z,12.30
2023-03-26T01:14:01.314Z,11.32
2023-03-26T01:14:32.890Z,8.52
2023-03-26T01:15:05.282Z,9.13
2023-03-26T01:15:37.361Z,14.90
2023-03-26T01:16:37.322Z,10.63
2023-03-26T01:17:09.260Z,9.07
2023-03-26T01:17:42.958Z,11.35
2023-03-26T01:18:14.555Z,11.85
2023-03-26T01:18:48.586Z,10.93
2023-03-26T01:19:22.808Z,11.43
2023-03-26T01:19:56.903Z,10.73
2023-03-26T01:20:30.400Z,14.35
2023-03-26T01:21:05.733Z,9.45
2023-03-26T01:21:38.728Z,11.43
2023-03-26T01:22:13.019Z,10.32
2023-03-26T01:22:56.354Z,14.50
2023-03-26T01:23:37.257Z,9.88
2023-03-26T01:24:10.508Z,8.43
2023-03-26T01:24:42.574Z,12.43
2023-03-26T01:25:14.412Z,14.10
2023-03-26T01:25:54.995Z,16.80
2023-03-26T01:26:47.718Z,17.40
2023-03-26T01:27:28.393Z,10.45
2023-03-26T01:28:00.867Z,9.10
2023-03-26T01:28:35.999Z,17.10
2023-03-26T01:29:14.744Z,7.50
2023-03-26T01:30:10.487Z,14.10
2023-03-26T01:30:51.863Z,11.43
2023-03-26T01:31:37.091Z,12.53
2023-03-26T01:32:17.763Z,11.77
2023-03-26T01:33:18.703Z,13.60
2023-03-26T01:34:00.533Z,9.18
2023-03-26T01:34:59.092Z,8.05
2023-03-26T01:36:00.600Z,13.82
2023-03-26T01:36:44.656Z,18.25
2023-03-26T01:37:39.617Z,9.45
2023-03-26T01:38:48.136Z,10.25
2023-03-26T01:39:27.494Z,10.10
2023-03-26T01:40:08.310Z,11.03
2023-03-26T01:40:49.432Z,13.48
2023-03-26T01:41:58.376Z,11.68
2023-03-26T01:42:42.339Z,8.65
2023-03-26T01:43:26.113Z,15.50
2023-03-26T01:44:03.113Z,10.63
2023-03-26T01:44:41.260Z,11.48
2023-03-26T01:45:21.136Z,11.88
2023-03-26T01:45:53.782Z,14.43
2023-03-26T01:47:17.652Z,12.30
2023-03-26T01:47:49.792Z,17.38
2023-03-26T01:48:21.457Z,8.93
2023-03-26T01:48:52.939Z,12.02
2023-03-26T01:49:28.288Z,12.13
2023-03-26T01:49:59.678Z,8.88
2023-03-26T01:50:31.255Z,13.25
2023-03-26T01:51:04.217Z,11.80
2023-03-26T01:51:36.019Z,13.88
2023-03-26T01:52:19.715Z,19.17
2023-03-26T01:52:51.478Z,16.93
2023-03-26T01:53:23.136Z,19.50
2023-03-26T01:53:57.137Z,10.98
2023-03-26T01:54:30.635Z,12.20
2023-03-26T01:55:02.789Z,9.88
2023-03-26T01:55:49.507Z,16.67
2023-03-26T01:56:45.670Z,12.98
2023-03-26T01:57:29.693Z,15.15
2023-03-26T01:58:18.739Z,10.00
2023-03-26T01:59:05.257Z,8.23
2023-03-26T01:59:59.009Z,12.00
2023-03-26T02:00:35.823Z,10.43
2023-03-26T02:01:24.606Z,12.32
2023-03-26T02:02:04.843Z,10.88
2023-03-26T02:02:45.434Z,12.48
2023-03-26T02:03:39.330Z,8.98
2023-03-26T02:04:41.112Z,13.20
2023-03-26T02:05:28.808Z,12.30
2023-03-26T02:06:15.894Z,15.18
2023-03-26T02:07:38.000Z,14.88
2023-03-26T02:08:22.659Z,13.23
2023-03-26T02:08:59.512Z,9.50
2023-03-26T02:09:37.002Z,17.13
2023-03-26T02:10:14.770Z,10.82
2023-03-26T02:10:51.290Z,12.40
2023-03-26T02:11:23.426Z,12.32
2023-03-26T02:11:55.742Z,14.57
2023-03-26T02:12:29.157Z,13.00
2023-03-26T02:13:01.277Z,11.80
2023-03-26T02:13:33.292Z,15.90
2023-03-26T02:14:06.037Z,15.10
2023-03-26T02:14:37.603Z,10.95
2023-03-26T02:15:10.526Z,12.90
2023-03-26T02:15:55.698Z,11.43
2023-03-26T02:16:27.465Z,6.53
2023-03-26T02:17:00.787Z,9.35
2023-03-26T02:17:32.882Z,9.57
2023-03-26T02:18:04.398Z,15.77
2023-03-26T02:18:41.772Z,12.55
2023-03-26T02:19:16.219Z,16.35
2023-03-26T02:19:47.996Z,12.57
2023-03-26T02:20:20.576Z,17.00
2023-03-26T02:20:55.646Z,15.60
2023-03-26T02:21:27.900Z,19.13
2023-03-26T02:21:59.834Z,14.55
2023-03-26T02:22:31.374Z,11.48
2023-03-26T02:23:02.998Z,10.20
2023-03-26T02:23:35.822Z,11.77
2023-03-26T02:24:07.568Z,13.15
2023-03-26T02:24:38.995Z,9.38
2023-03-26T02:25:12.923Z,11.87
2023-03-26T02:25:44.387Z,13.63
2023-03-26T02:26:18.309Z,12.98
2023-03-26T02:26:49.707Z,8.32
2023-03-26T02:27:21.322Z,13.80
2023-03-26T02:27:53.432Z,14.13
2023-03-26T02:28:24.918Z,14.73
2023-03-26T02:28:57.456Z,10.48
2023-03-26T02:29:29.730Z,15.88
2023-03-26T02:30:02.423Z,13.30
2023-03-26T02:30:33.795Z,12.70
2023-03-26T02:31:05.669Z,15.20
2023-03-26T02:31:37.100Z,11.32
2023-03-26T02:32:13.748Z,11.18
2023-03-26T02:32:45.179Z,13.38
2023-03-26T02:33:17.299Z,16.92
2023-03-26T02:33:49.452Z,13.73
2023-03-26T02:34:21.026Z,19.67
2023-03-26T02:34:52.477Z,16.20
2023-03-26T02:35:23.984Z,15.00
2023-03-26T02:35:59.476Z,8.43
2023-03-26T02:36:31.302Z,11.75
2023-03-26T02:37:02.764Z,17.45
2023-03-26T02:37:34.132Z,17.48
2023-03-26T02:38:06.618Z,12.52
2023-03-26T02:38:38.021Z,14.43
2023-03-26T02:39:14.340Z,14.77
2023-03-26T02:39:45.966Z,15.88
2023-03-26T02:40:22.179Z,15.25
2023-03-26T02:40:54.690Z,14.82
2023-03-26T02:41:26.154Z,11.73
2023-03-26T02:41:57.589Z,10.95
2023-03-26T02:42:28.978Z,15.70
2023-03-26T02:43:00.939Z,17.55
2023-03-26T02:43:32.401Z,12.95
2023-03-26T02:44:05.718Z,16.05
2023-03-26T02:44:40.052Z,14.50
2023-03-26T02:45:11.683Z,12.35
2023-03-26T02:45:43.105Z,9.88
2023-03-26T02:46:14.713Z,11.50
2023-03-26T02:46:46.254Z,12.83
2023-03-26T02:47:17.989Z,11.65
2023-03-26T02:47:50.973Z,15.63
2023-03-26T02:48:22.442Z,10.10
2023-03-26T02:48:53.770Z,16.63
2023-03-26T02:49:25.273Z,15.50
2023-03-26T02:49:56.780Z,15.23
2023-03-26T02:50:28.618Z,14.73
2023-03-26T02:51:01.248Z,16.30
2023-03-26T02:51:34.872Z,17.42
2023-03-26T02:52:06.753Z,16.23
2023-03-26T02:52:38.845Z,28.85
2023-03-26T02:53:11.745Z,18.48
2023-03-26T02:53:43.245Z,14.13
2023-03-26T02:54:16.147Z,19.52
2023-03-26T02:54:47.582Z,21.40
2023-03-26T02:55:19.096Z,15.80
2023-03-26T02:55:50.737Z,17.80
2023-03-26T02:56:22.203Z,19.70
2023-03-26T02:56:53.636Z,14.73
2023-03-26T02:57:25.959Z,15.73
2023-03-26T02:57:57.338Z,14.30
2023-03-26T02:58:30.063Z,10.50
2023-03-26T02:59:01.483Z,18.50
2023-03-26T02:59:32.940Z,19.33
2023-03-26T03:00:09.319Z,16.38
2023-03-26T03:00:40.754Z,14.10
2023-03-26T03:01:13.150Z,20.65
2023-03-26T03:01:44.672Z,19.85
2023-03-26T03:02:18.553Z,14.57
2023-03-26T03:02:50.530Z,15.67
2023-03-26T03:03:24.289Z,13.55
2023-03-26T03:03:55.874Z,15.00
2023-03-26T03:04:27.333Z,14.38
2023-03-26T03:05:01.596Z,17.65
2023-03-26T03:05:34.207Z,17.45
2023-03-26T03:06:05.902Z,13.05
2023-03-26T03:06:38.646Z,14.13
2023-03-26T03:07:14.360Z,19.50
2023-03-26T03:07:46.672Z,15.73
2023-03-26T03:08:19.270Z,15.53
2023-03-26T03:08:50.659Z,16.13
2023-03-26T03:09:22.241Z,15.25
2023-03-26T03:09:53.611Z,14.82
2023-03-26T03:10:28.118Z,16.35
2023-03-26T03:11:11.111Z,10.23
2023-03-26T03:11:42.514Z,22.00
2023-03-26T03:12:13.930Z,27.33
2023-03-26T03:12:45.389Z,17.77
2023-03-26T03:13:16.809Z,21.67
2023-03-26T03:13:48.291Z,16.43
2023-03-26T03:14:19.728Z,14.60
2023-03-26T03:14:51.201Z,24.92
2023-03-26T03:15:22.731Z,23.00
2023-03-26T03:15:55.094Z,16.98
2023-03-26T03:16:27.254Z,22.08
2023-03-26T03:16:58.724Z,19.15
2023-03-26T03:17:30.107Z,16.60
2023-03-26T03:18:02.344Z,14.02
2023-03-26T03:18:33.742Z,19.02
2023-03-26T03:19:06.092Z,20.17
2023-03-26T03:19:37.819Z,14.88
2023-03-26T03:20:09.474Z,14.02
2023-03-26T03:20:41.580Z,19.90
2023-03-26T03:21:13.072Z,16.58
2023-03-26T03:21:44.579Z,18.38
2023-03-26T03:22:16.076Z,15.40
2023-03-26T03:22:47.454Z,22.55
2023-03-26T03:23:19.064Z,20.85
2023-03-26T03:23:50.857Z,14.63
2023-03-26T03:24:23.433Z,18.73
2023-03-26T03:24:57.692Z,16.27
2023-03-26T03:25:29.082Z,16.27
2023-03-26T03:26:00.523Z,24.52
2023-03-26T03:26:31.916Z,18.23
2023-03-26T03:27:04.211Z,14.40
2023-03-26T03:27:39.320Z,17.40
2023-03-26T03:28:11.149Z,20.40
2023-03-26T03:28:45.086Z,23.35
2023-03-26T03:29:16.680Z,24.65
2023-03-26T03:29:48.125Z,18.97
2023-03-26T03:30:19.518Z,20.10
2023-03-26T03:30:54.037Z,21.48
2023-03-26T03:31:26.480Z,23.35
2023-03-26T03:32:00.270Z,18.42
2023-03-26T03:32:31.730Z,20.65
2023-03-26T03:33:03.601Z,16.88
2023-03-26T03:33:35.669Z,20.25
2023-03-26T03:34:07.150Z,23.48
2023-03-26T03:34:38.758Z,18.88
2023-03-26T03:35:10.491Z,25.07
2023-03-26T03:35:42.625Z,17.30
2023-03-26T03:36:20.899Z,14.75
2023-03-26T03:36:53.387Z,18.67
2023-03-26T03:37:25.175Z,21.75
2023-03-26T03:37:57.985Z,20.02
2023-03-26T03:38:29.344Z,21.42
2023-03-26T03:39:02.421Z,18.10
2023-03-26T03:39:34.234Z,22.17
2023-03-26T03:40:07.828Z,23.55
2023-03-26T03:40:39.243Z,25.33
2023-03-26T03:41:11.269Z,25.23
2023-03-26T03:41:42.832Z,25.65
2023-03-26T03:42:14.239Z,23.17
2023-03-26T03:42:46.497Z,29.13
2023-03-26T03:43:18.101Z,26.35
2023-03-26T03:43:50.116Z,28.15
2023-03-26T03:44:21.739Z,35.08
2023-03-26T03:44:53.211Z,31.58
2023-03-26T03:45:24.561Z,29.92
2023-03-26T03:45:56.402Z,40.10
2023-03-26T03:46:28.370Z,31.92
2023-03-26T03:46:59.841Z,38.85
2023-03-26T03:47:31.442Z,34.45
2023-03-26T03:48:03.527Z,39.25
2023-03-26T03:48:38.318Z,36.80
2023-03-26T03:49:09.733Z,37.17
2023-03-26T03:49:41.414Z,32.25
2023-03-26T03:50:12.846Z,33.42
2023-03-26T03:50:44.273Z,31.05
2023-03-26T03:51:18.218Z,35.93
2023-03-26T03:51:49.659Z,32.55
2023-03-26T03:52:20.989Z,40.45
2023-03-26T03:52:52.542Z,34.20
2023-03-26T03:53:26.147Z,33.50
2023-03-26T03:53:57.784Z,48.78
2023-03-26T03:54:29.284Z,32.55
2023-03-26T03:55:00.701Z,34.50
2023-03-26T03:55:32.339Z,42.42
2023-03-26T03:56:10.571Z,36.80
2023-03-26T03:56:42.035Z,41.70
2023-03-26T03:57:15.930Z,37.30
2023-03-26T03:57:47.722Z,36.65
2023-03-26T03:58:22.341Z,34.70
2023-03-26T03:58:53.833Z,41.47
2023-03-26T03:59:25.305Z,51.63
2023-03-26T03:59:59.561Z,35.22
2023-03-26T04:00:30.945Z,43.00
2023-03-26T04:01:03.150Z,37.35
2023-03-26T04:01:34.960Z,34.35
2023-03-26T04:02:06.323Z,35.60
2023-03-26T04:02:38.481Z,38.10
2023-03-26T04:03:14.351Z,46.22
2023-03-26T04:03:46.927Z,36.72
2023-03-26T04:04:18.600Z,35.75
2023-03-26T04:04:50.274Z,35.47
2023-03-26T04:05:21.821Z,32.53
2023-03-26T04:05:55.179Z,39.45
2023-03-26T04:06:30.188Z,38.83
2023-03-26T04:07:02.200Z,39.40
2023-03-26T04:07:33.634Z,43.07
2023-03-26T04:08:05.214Z,34.55
2023-03-26T04:08:36.805Z,40.22
2023-03-26T04:09:09.856Z,46.00
2023-03-26T04:09:41.283Z,47.30
2023-03-26T04:10:15.328Z,40.53
2023-03-26T04:10:47.234Z,36.03
2023-03-26T04:11:18.662Z,36.55
2023-03-26T04:11:50.948Z,38.22
2023-03-26T04:12:22.373Z,36.15
2023-03-26T04:12:53.756Z,41.03
2023-03-26T04:13:25.291Z,41.65
2023-03-26T04:13:56.698Z,34.72
2023-03-26T04:14:28.137Z,47.45
2023-03-26T04:14:59.602Z,48.83
2023-03-26T04:15:31.021Z,43.33
2023-03-26T04:16:02.719Z,32.00
2023-03-26T04:16:34.192Z,38.13
2023-03-26T04:17:06.069Z,40.72
2023-03-26T04:17:42.434Z,33.53
2023-03-26T04:18:14.475Z,44.13
2023-03-26T04:18:46.635Z,45.10
2023-03-26T04:19:18.019Z,41.25
2023-03-26T04:19:52.855Z,47.22
2023-03-26T04:20:24.441Z,39.50
2023-03-26T04:20:55.971Z,38.67
2023-03-26T04:21:30.499Z,42.22
2023-03-26T04:22:02.613Z,40.63
2023-03-26T04:22:36.408Z,37.63
2023-03-26T04:23:08.554Z,42.80
2023-03-26T04:23:40.176Z,35.07
2023-03-26T04:24:11.995Z,36.72
2023-03-26T04:24:43.397Z,35.55
2023-03-26T04:25:15.557Z,34.92
2023-03-26T04:25:53.807Z,40.67
2023-03-26T04:26:25.538Z,35.33
2023-03-26T04:27:01.133Z,25.90
2023-03-26T04:27:36.633Z,29.98
2023-03-26T04:28:09.019Z,37.08
2023-03-26T04:28:50.755Z,30.05
2023-03-26T04:29:25.657Z,33.73
2023-03-26T04:29:58.215Z,37.88
2023-03-26T04:30:29.692Z,33.85
2023-03-26T04:31:03.909Z,42.72
2023-03-26T04:31:36.147Z,32.15
2023-03-26T04:32:12.664Z,39.00
2023-03-26T04:32:45.042Z,34.25
2023-03-26T04:33:16.641Z,42.22
2023-03-26T04:33:48.014Z,33.42
2023-03-26T04:34:26.515Z,28.73
2023-03-26T04:35:03.410Z,37.83
2023-03-26T04:35:35.002Z,41.63
2023-03-26T04:36:06.915Z,38.08
2023-03-26T04:36:40.651Z,29.13
2023-03-26T04:37:26.452Z,35.80
2023-03-26T04:37:58.220Z,34.72
2023-03-26T04:38:41.427Z,34.58
2023-03-26T04:39:13.345Z,48.60
2023-03-26T04:39:44.892Z,37.13
2023-03-26T04:40:21.949Z,37.50
2023-03-26T04:40:53.438Z,40.07
2023-03-26T04:41:27.706Z,32.17
2023-03-26T04:41:59.071Z,39.30
2023-03-26T04:42:33.191Z,42.67
2023-03-26T04:43:04.626Z,33.88
2023-03-26T04:43:36.025Z,37.90
2023-03-26T04:44:07.805Z,37.58
2023-03-26T04:44:42.293Z,37.22
2023-03-26T04:45:16.329Z,40.08
2023-03-26T04:45:48.049Z,39.75
2023-03-26T04:46:23.703Z,40.57
2023-03-26T04:46:55.434Z,37.00
2023-03-26T04:47:27.011Z,34.42
2023-03-26T04:47:58.760Z,40.63
2023-03-26T04:48:30.885Z,42.88
2023-03-26T04:49:02.351Z,35.33
2023-03-26T04:49:33.730Z,45.17
2023-03-26T04:50:09.371Z,40.45
2023-03-26T04:50:46.158Z,43.05
2023-03-26T04:51:21.942Z,37.03
2023-03-26T04:51:53.371Z,27.17
2023-03-26T04:52:24.923Z,39.08
2023-03-26T04:52:57.345Z,34.80
2023-03-26T04:53:28.918Z,33.05
2023-03-26T04:54:02.443Z,44.40
2023-03-26T04:54:33.878Z,35.60
2023-03-26T04:55:19.479Z,31.23
2023-03-26T04:55:57.060Z,41.03
2023-03-26T04:56:41.107Z,35.65
2023-03-26T04:57:21.396Z,38.72
2023-03-26T04:58:05.337Z,41.10
2023-03-26T04:58:36.722Z,39.70
2023-03-26T04:59:13.771Z,39.78
2023-03-26T04:59:45.224Z,33.83
2023-03-26T05:00:19.465Z,34.00
2023-03-26T05:00:50.998Z,36.20
2023-03-26T05:01:24.567Z,37.60
2023-03-26T05:01:58.112Z,30.05
2023-03-26T05:02:32.419Z,39.90
2023-03-26T05:03:04.269Z,44.90
2023-03-26T05:03:39.349Z,39.87
2023-03-26T05:04:10.804Z,38.17
2023-03-26T05:04:43.899Z,42.38
2023-03-26T05:05:16.686Z,31.08
2023-03-26T05:05:49.621Z,38.83
2023-03-26T05:06:21.856Z,38.13
2023-03-26T05:06:53.851Z,40.63
2023-03-26T05:07:25.329Z,35.60
2023-03-26T05:07:56.896Z,48.22
2023-03-26T05:08:29.446Z,44.33
2023-03-26T05:09:02.140Z,32.90
2023-03-26T05:09:33.583Z,35.55
2023-03-26T05:10:05.533Z,38.45
2023-03-26T05:11:26.145Z,41.50
2023-03-26T05:11:58.495Z,39.75
2023-03-26T05:12:30.264Z,32.92
2023-03-26T05:13:01.767Z,46.58
2023-03-26T05:13:33.112Z,43.83
2023-03-26T05:14:04.529Z,46.55
2023-03-26T05:14:36.246Z,51.43
2023-03-26T05:15:09.148Z,27.85
2023-03-26T05:15:40.716Z,40.28
2023-03-26T05:16:12.296Z,43.72
2023-03-26T05:16:46.424Z,41.63
2023-03-26T05:17:19.010Z,42.40
2023-03-26T05:17:51.302Z,41.15
2023-03-26T05:18:22.827Z,47.53
2023-03-26T05:18:54.704Z,48.22
2023-03-26T05:19:26.263Z,36.78
2023-03-26T05:19:57.741Z,40.20
2023-03-26T05:20:31.164Z,36.08
2023-03-26T05:21:02.798Z,39.92
2023-03-26T05:21:34.776Z,36.92
2023-03-26T05:22:06.151Z,38.72
2023-03-26T05:22:38.802Z,34.92
2023-03-26T05:23:10.912Z,45.88
2023-03-26T05:23:42.284Z,36.60
2023-03-26T05:24:13.637Z,48.83
2023-03-26T05:24:45.105Z,54.55
2023-03-26T05:25:17.790Z,35.13
2023-03-26T05:25:49.455Z,52.63
2023-03-26T05:26:21.159Z,36.83
2023-03-26T05:26:52.558Z,45.20
2023-03-26T05:27:23.948Z,48.35
2023-03-26T05:27:55.610Z,39.63
2023-03-26T05:28:28.145Z,37.25
2023-03-26T05:29:00.212Z,35.42
2023-03-26T05:29:31.594Z,44.38
2023-03-26T05:30:05.296Z,37.97
2023-03-26T05:30:36.795Z,39.57
2023-03-26T05:31:08.522Z,32.72
2023-03-26T05:31:39.974Z,35.53
2023-03-26T05:32:12.153Z,42.45
2023-03-26T05:32:44.061Z,39.35
2023-03-26T05:33:16.368Z,29.15
2023-03-26T05:33:48.977Z,28.85
2023-03-26T05:34:23.979Z,38.50
2023-03-26T05:34:55.349Z,47.45
2023-03-26T05:35:26.761Z,36.53
2023-03-26T05:36:01.333Z,32.63
2023-03-26T05:36:33.496Z,33.25
2023-03-26T05:37:06.773Z,32.88
2023-03-26T05:37:38.861Z,34.75
2023-03-26T05:38:10.853Z,46.15
2023-03-26T05:38:47.266Z,34.53
2023-03-26T05:39:19.134Z,34.83
2023-03-26T05:39:54.960Z,39.55
2023-03-26T05:40:26.425Z,51.38
2023-03-26T05:41:03.448Z,39.88
2023-03-26T05:41:35.299Z,33.27
2023-03-26T05:42:07.788Z,34.15
2023-03-26T05:42:40.447Z,36.00
2023-03-26T05:43:11.891Z,37.33
2023-03-26T05:43:44.870Z,42.22
2023-03-26T05:44:16.316Z,31.17
2023-03-26T05:44:47.725Z,41.08
2023-03-26T05:45:19.369Z,33.85
2023-03-26T05:45:50.858Z,41.05
2023-03-26T05:46:23.339Z,42.35
2023-03-26T05:46:55.338Z,39.47
2023-03-26T05:47:27.425Z,39.38
2023-03-26T05:47:59.104Z,39.80
2023-03-26T05:48:31.305Z,34.42
2023-03-26T05:49:02.916Z,34.50
2023-03-26T05:49:34.287Z,31.63
2023-03-26T05:50:06.678Z,34.97
2023-03-26T05:50:38.067Z,35.53
2023-03-26T05:51:09.691Z,40.90
2023-03-26T05:51:41.130Z,37.17
2023-03-26T05:52:15.222Z,42.43
2023-03-26T05:52:46.634Z,42.53
2023-03-26T05:53:18.927Z,44.22
2023-03-26T05:53:50.312Z,36.65
2023-03-26T05:54:21.867Z,49.65
2023-03-26T05:54:53.302Z,45.28
2023-03-26T05:55:24.674Z,48.75
2023-03-26T05:55:59.046Z,31.88
2023-03-26T05:56:30.626Z,41.70
2023-03-26T05:57:02.025Z,41.83
2023-03-26T05:57:35.352Z,49.03
2023-03-26T05:58:07.059Z,34.13
2023-03-26T05:58:38.476Z,36.47
2023-03-26T05:59:09.900Z,34.53
2023-03-26T05:59:41.600Z,50.63
2023-03-26T06:00:15.005Z,34.13
2023-03-26T06:00:48.471Z,54.22
2023-03-26T06:01:20.737Z,53.92
2023-03-26T06:01:54.415Z,37.53
2023-03-26T06:02:26.169Z,33.00
2023-03-26T06:02:58.732Z,38.87
2023-03-26T06:03:30.683Z,41.47
2023-03-26T06:04:02.395Z,37.88
2023-03-26T06:04:34.043Z,42.55
2023-03-26T06:05:06.067Z,34.95
2023-03-26T06:05:38.972Z,38.75
2023-03-26T06:06:15.637Z,47.03
2023-03-26T06:06:47.125Z,41.33
2023-03-26T06:07:19.872Z,36.80
2023-03-26T06:07:51.578Z,45.55
2023-03-26T06:08:23.511Z,37.70
2023-03-26T06:09:01.692Z,43.85
2023-03-26T06:09:34.205Z,38.10
2023-03-26T06:10:06.221Z,35.50
2023-03-26T06:10:39.215Z,33.03
2023-03-26T06:11:12.532Z,40.17
2023-03-26T06:11:44.243Z,36.75
2023-03-26T06:12:15.808Z,33.63
2023-03-26T06:12:47.345Z,38.55
2023-03-26T06:13:19.014Z,38.03
2023-03-26T06:13:50.430Z,33.40
2023-03-26T06:14:22.773Z,39.42
2023-03-26T06:14:54.251Z,37.85
2023-03-26T06:15:25.677Z,32.63
2023-03-26T06:15:58.310Z,31.20
2023-03-26T06:16:29.742Z,38.92
2023-03-26T06:17:01.273Z,38.72
2023-03-26T06:17:32.770Z,34.83
2023-03-26T06:18:04.328Z,34.55
2023-03-26T06:18:36.137Z,39.15
2023-03-26T06:19:07.834Z,42.80
2023-03-26T06:19:39.656Z,42.55
2023-03-26T06:20:12.362Z,43.47
2023-03-26T06:20:44.421Z,35.97
2023-03-26T06:21:15.881Z,36.13
2023-03-26T06:21:47.360Z,35.65
2023-03-26T06:22:18.786Z,35.47
2023-03-26T06:22:50.250Z,44.42
2023-03-26T06:23:23.101Z,34.95
2023-03-26T06:23:55.369Z,35.45
2023-03-26T06:24:27.084Z,34.13
2023-03-26T06:24:58.638Z,33.60
2023-03-26T06:25:30.209Z,29.40
2023-03-26T06:26:01.643Z,33.95
2023-03-26T06:26:33.111Z,38.03
2023-03-26T06:27:04.595Z,34.30
2023-03-26T06:27:36.200Z,39.63
2023-03-26T06:28:07.691Z,42.13
2023-03-26T06:28:39.230Z,39.58
2023-03-26T06:29:11.032Z,34.08
2023-03-26T06:29:42.434Z,42.57
2023-03-26T06:30:14.303Z,42.10
2023-03-26T06:30:46.157Z,37.67
2023-03-26T06:31:19.225Z,38.75
2023-03-26T06:31:50.751Z,37.70
2023-03-26T06:32:22.420Z,44.72
2023-03-26T06:32:53.848Z,46.10
2023-03-26T06:33:25.256Z,38.15
2023-03-26T06:33:56.851Z,33.35
2023-03-26T06:34:28.275Z,40.33
2023-03-26T06:34:59.749Z,41.93
2023-03-26T06:35:31.325Z,41.10
2023-03-26T06:36:02.915Z,52.50
2023-03-26T06:36:34.586Z,32.25
2023-03-26T06:37:06.062Z,40.13
2023-03-26T06:37:37.700Z,38.75
2023-03-26T06:38:09.139Z,35.83
2023-03-26T06:38:40.824Z,42.25
2023-03-26T06:39:12.305Z,41.42
2023-03-26T06:39:44.113Z,43.28
2023-03-26T06:40:16.025Z,37.90
2023-03-26T06:40:47.594Z,41.38
2023-03-26T06:41:19.057Z,36.63
2023-03-26T06:41:50.974Z,35.72
2023-03-26T06:42:22.405Z,33.80
2023-03-26T06:43:14.078Z,35.10
2023-03-26T06:43:45.554Z,40.20
2023-03-26T06:44:16.978Z,39.92
2023-03-26T06:44:48.441Z,40.38
2023-03-26T06:45:19.769Z,40.67
2023-03-26T06:45:52.317Z,39.60
2023-03-26T06:46:25.542Z,37.20
2023-03-26T06:46:57.177Z,41.85
2023-03-26T06:47:28.617Z,44.95
2023-03-26T06:48:00.366Z,51.05
2023-03-26T06:48:31.822Z,39.20
2023-03-26T06:49:03.530Z,42.05
2023-03-26T06:49:35.125Z,36.28
2023-03-26T06:50:07.340Z,45.75
2023-03-26T06:50:38.828Z,45.95
2023-03-26T06:51:11.219Z,35.57
2023-03-26T06:51:43.516Z,40.78
2023-03-26T06:52:15.163Z,34.20
2023-03-26T06:52:46.657Z,41.90
2023-03-26T06:53:18.275Z,41.20
2023-03-26T06:53:49.735Z,35.63
2023-03-26T06:54:21.287Z,44.30
2023-03-26T06:54:52.675Z,44.05
2023-03-26T06:55:24.756Z,44.90
2023-03-26T06:55:56.292Z,38.70
2023-03-26T06:56:27.676Z,39.50
2023-03-26T06:56:59.878Z,45.17
2023-03-26T06:57:31.596Z,36.97
2023-03-26T06:58:03.063Z,46.28
2023-03-26T06:58:35.142Z,43.88
2023-03-26T06:59:06.673Z,40.55
2023-03-26T06:59:38.266Z,38.65
2023-03-26T07:00:10.329Z,38.78
2023-03-26T07:00:42.330Z,41.15
2023-03-26T07:01:13.981Z,45.72
2023-03-26T07:01:46.787Z,45.00
2023-03-26T07:02:18.207Z,38.45
2023-03-26T07:02:49.915Z,37.42
2023-03-26T07:03:21.862Z,34.90
2023-03-26T07:03:53.309Z,39.85
2023-03-26T07:04:24.806Z,36.33
2023-03-26T07:04:56.286Z,41.80
2023-03-26T07:05:27.777Z,39.92
2023-03-26T07:05:59.253Z,33.75
2023-03-26T07:06:32.075Z,44.92
2023-03-26T07:07:03.800Z,36.63
2023-03-26T07:07:35.213Z,37.60
2023-03-26T07:08:17.347Z,44.55
2023-03-26T07:08:48.820Z,39.60
2023-03-26T07:09:20.334Z,40.50
2023-03-26T07:09:51.689Z,37.50
2023-03-26T07:10:23.720Z,41.17
2023-03-26T07:10:55.394Z,48.15
2023-03-26T07:11:27.052Z,43.92
2023-03-26T07:11:59.053Z,36.53
2023-03-26T07:12:30.469Z,40.43
2023-03-26T07:13:01.873Z,32.22
2023-03-26T07:13:33.344Z,41.60
2023-03-26T07:14:04.702Z,42.33
2023-03-26T07:14:38.708Z,47.15
2023-03-26T07:15:10.633Z,42.20
2023-03-26T07:15:42.276Z,45.17